KFLL/FLL METAR and TAF weather

Enter ICAO airport designator
Station Type Date Time Source
KFLL METAR 2021/05/12 03:53 UTC NOAA

KFLL 120353Z 14010KT 10SM FEW025 BKN250 27/23 A3006 RMK AO2 SLP178 T02720233


Station Type Date Time Source
KFLL Decoded METAR 2021/05/12 03:53 UTC NOAA

FORT LAUDERDALE/HOLLYWOOD, FL, United States (KFLL) 26-04N 080-09W 30M
May 11, 2021 - 11:53 PM EDT / 2021.05.12 0353 UTC
Wind: from the SE (140 degrees) at 12 MPH (10 KT):0
Visibility: 10 mile(s):0
Sky conditions: mostly cloudy
Temperature: 81.0 F (27.2 C)
Dew Point: 73.9 F (23.3 C)
Relative Humidity: 79%
Pressure (altimeter): 30.06 in. Hg (1017 hPa)
ob: KFLL 120353Z 14010KT 10SM FEW025 BKN250 27/23 A3006 RMK AO2 SLP178 T02720233
cycle: 4

Station Type Date Time Source
KFLL TAF 2021/05/12 03:15 UTC NOAA

KFLL 120311Z 1203/1306 12008KT P6SM SCT025 SCT250
FM120500 VRB04KT P6SM SCT250
FM121400 14010KT P6SM FEW030 SCT100
FM130200 15005KT P6SM FEW025

Example: see airport list